Bowen, John
United StatesManBorn 19832009 – 2026Runner id 85805
Events
24
2009 – 2026
Best pace
8.158
km/h · 2026
Best finish
23rd
of 140 · 2014
Distance raced
2,363
km · splits not double-counted
Pace over time
km/h · higher is faster
Pace over time: 24 races from 2009 to 2026, ranging from 3.46 to 8.55 kilometres per hour, where higher is faster. A second, age-graded series is drawn above it; the gap between the two is the age credit.
- Actual pace
- Age-graded pace
Results
| Date | Event | Distance | Result | Pace km/h | Placing |
|---|---|---|---|---|---|
| 2009-09-19 | 50mi | 11:54:06 h | 6.761 | 160/191 | |
| 2010-07-17 | 24h | 122.477 km | 5.103 | 49/158 | |
| 2011-07-16 | 24h | 136.086 km | 5.670 | 38/198 | |
| 2012-07-14 | 24h | 122.477 km | 5.103 | 66/195 | |
| 2013-09-21 | 24h | 108.147 km | 4.506 | 18/63 | |
| 2014-07-19 | 24h | 136.150 km | 5.673 | 23/140 | |
| 2014-09-28 | Sloppy Cuckoo 12 hour ChallengeUnited States | 12h | 73.788 km | 6.149 | 19/68 |
| 2015-04-18 | 50mi | 11:15:37 h | 7.146 | 134/231 | |
| 2015-07-18 | Lone Ranger 24 hr Urban UltraUnited States | 24h | 95.305 km | 3.971 | 49/128 |
| 2017-04-01 | 50mi | 12:02:51 h | 6.679 | 33/42 | |
| 2018-03-31 | 50mi | 11:37:32 h | 6.922 | 50/69 | |
| 2019-03-30 | 50mi | 11:47:33 h | 6.824 | 59/73 | |
| 2023-06-03 | Chesterfield Gorge 100 Km Ultra RaceUnited States | 100km | 18:31:00 h | 5.401 | 8/8 |
| 2024-06-01 | 100km | 19:55:51 h | 5.017 | 24/25 | |
| 2024-10-05 | 30h | 103.641 km | 3.455 | 15/32 | |
| 2025-05-03 | 9h | 54.073 km | 6.008 | 12/28 | |
| 2025-05-31 | Chesterfield Gorge 100 Km Ultra RaceUnited States | 100km | 21:18:13 h | 4.694 | 10/11 |
| 2025-06-28 | 33h | 139.047 km | 4.214 | 6/32 | |
| 2025-10-11 | 30h | 132.786 km | 4.426 | 8/31 | |
| 2025-11-01 | The Hamsterwheel 30 Hour RunUnited States | 30h | 141.622 km | 4.721 | 40/141 |
| 2026-04-04 | Mount Toby 50k RaceUnited States | 50km | 8:03:51 h | 6.200 | 37/40 |
| 2026-05-09 | 50km | 6:07:44 h | 8.158 | 21/29 | |
| 2026-06-13 | Edge Hill Trail RaceUnited States | 50km | 9:50:50 h | 5.078 | 35/36 |
| 2026-06-27 | 33h | 144.840 km | 4.389 | 16/39 |